createdAt,value
2022-08-21T00:01:32.734Z,21.84
2022-08-21T00:03:59.060Z,21.80
2022-08-21T00:06:25.356Z,21.75
2022-08-21T00:08:51.856Z,21.72
2022-08-21T00:11:18.338Z,21.69
2022-08-21T00:13:44.631Z,21.65
2022-08-21T00:16:11.053Z,21.62
2022-08-21T00:18:37.384Z,21.57
2022-08-21T00:21:03.653Z,21.54
2022-08-21T00:23:30.023Z,21.51
2022-08-21T00:25:56.284Z,21.48
2022-08-21T00:28:22.548Z,21.44
2022-08-21T00:30:48.804Z,21.41
2022-08-21T00:33:15.098Z,21.38
2022-08-21T00:35:42.594Z,21.35
2022-08-21T00:38:08.923Z,21.32
2022-08-21T00:40:35.198Z,21.27
2022-08-21T00:43:01.578Z,21.24
2022-08-21T00:45:28.174Z,21.19
2022-08-21T00:47:54.663Z,21.16
2022-08-21T00:50:21.832Z,21.10
2022-08-21T00:52:48.657Z,21.05
2022-08-21T00:55:15.272Z,21.01
2022-08-21T00:57:41.606Z,20.98
2022-08-21T01:00:07.867Z,20.94
2022-08-21T01:02:34.462Z,20.92
2022-08-21T01:05:00.750Z,20.90
2022-08-21T01:07:29.626Z,20.87
2022-08-21T01:09:55.927Z,20.82
2022-08-21T01:12:22.623Z,20.78
2022-08-21T01:14:51.031Z,20.75
2022-08-21T01:17:17.332Z,20.72
2022-08-21T01:19:43.592Z,20.67
2022-08-21T01:22:09.908Z,20.65
2022-08-21T01:24:36.212Z,20.63
2022-08-21T01:27:02.543Z,20.60
2022-08-21T01:29:28.980Z,20.56
2022-08-21T01:31:55.215Z,20.51
2022-08-21T01:34:21.446Z,20.48
2022-08-21T01:36:47.674Z,20.44
2022-08-21T01:39:14.116Z,20.42
2022-08-21T01:41:40.421Z,20.41
2022-08-21T01:44:06.778Z,20.38
2022-08-21T01:46:32.998Z,20.36
2022-08-21T01:48:59.330Z,20.35
2022-08-21T01:51:25.586Z,20.34
2022-08-21T01:53:51.827Z,20.32
2022-08-21T01:56:18.064Z,20.30
2022-08-21T01:58:44.487Z,20.28
2022-08-21T02:01:10.844Z,20.25
2022-08-21T02:03:37.144Z,20.23
2022-08-21T02:06:03.580Z,20.21
2022-08-21T02:08:29.820Z,20.17
2022-08-21T02:10:56.201Z,20.14
2022-08-21T02:13:23.868Z,20.12
2022-08-21T02:15:50.129Z,20.10
2022-08-21T02:18:16.498Z,20.08
2022-08-21T02:20:43.312Z,20.05
2022-08-21T02:23:09.643Z,20.01
2022-08-21T02:25:39.744Z,19.99
2022-08-21T02:28:06.031Z,19.96
2022-08-21T02:30:32.310Z,19.92
2022-08-21T02:32:58.623Z,19.89
2022-08-21T02:35:25.069Z,19.87
2022-08-21T02:37:51.667Z,19.85
2022-08-21T02:40:17.967Z,19.82
2022-08-21T02:42:44.382Z,19.77
2022-08-21T02:45:10.777Z,19.65
2022-08-21T02:47:37.370Z,19.71
2022-08-21T02:50:03.669Z,19.67
2022-08-21T02:52:30.191Z,19.64
2022-08-21T02:54:56.473Z,19.61
2022-08-21T02:57:22.715Z,19.58
2022-08-21T02:59:48.969Z,19.54
2022-08-21T03:02:17.574Z,19.51
2022-08-21T03:04:46.644Z,19.47
2022-08-21T03:07:13.204Z,19.44
2022-08-21T03:09:39.552Z,19.40
2022-08-21T03:12:17.141Z,19.37
2022-08-21T03:14:43.387Z,19.35
2022-08-21T03:17:09.741Z,19.33
2022-08-21T03:19:36.156Z,19.30
2022-08-21T03:22:02.416Z,19.27
2022-08-21T03:24:29.746Z,19.25
2022-08-21T03:26:56.055Z,19.22
2022-08-21T03:29:22.655Z,19.21
2022-08-21T03:31:48.917Z,19.18
2022-08-21T03:34:15.575Z,19.15
2022-08-21T03:36:41.808Z,19.15
2022-08-21T03:39:08.046Z,19.15
2022-08-21T03:41:34.319Z,19.13
2022-08-21T03:44:00.724Z,19.13
2022-08-21T03:46:27.111Z,19.13
2022-08-21T03:48:53.357Z,19.11
2022-08-21T03:51:19.640Z,19.11
2022-08-21T03:53:46.241Z,19.08
2022-08-21T03:56:12.530Z,19.03
2022-08-21T03:58:38.768Z,19.01
2022-08-21T04:01:05.065Z,19.00
2022-08-21T04:03:31.349Z,18.97
2022-08-21T04:05:57.724Z,18.97
2022-08-21T04:08:24.124Z,18.97
2022-08-21T04:10:50.464Z,18.96
2022-08-21T04:13:16.793Z,18.94
2022-08-21T04:15:43.254Z,18.94
2022-08-21T04:18:09.514Z,18.93
2022-08-21T04:20:35.945Z,18.92
2022-08-21T04:23:02.437Z,18.90
2022-08-21T04:25:28.725Z,18.89
2022-08-21T04:27:54.942Z,18.88
2022-08-21T04:30:21.199Z,18.86
2022-08-21T04:32:54.463Z,18.83
2022-08-21T04:35:21.997Z,18.82
2022-08-21T04:37:48.263Z,18.81
2022-08-21T04:40:14.628Z,18.78
2022-08-21T04:42:40.954Z,18.77
2022-08-21T04:45:07.257Z,18.75
2022-08-21T04:47:41.751Z,18.74
2022-08-21T04:50:19.380Z,18.72
2022-08-21T04:52:45.704Z,18.71
2022-08-21T04:55:11.948Z,18.71
2022-08-21T04:57:48.298Z,18.70
2022-08-21T05:00:15.602Z,18.71
2022-08-21T05:02:41.919Z,18.74
2022-08-21T05:05:09.377Z,18.80
2022-08-21T05:07:42.163Z,18.83
2022-08-21T05:10:09.860Z,18.85
2022-08-21T05:12:38.662Z,18.94
2022-08-21T05:15:04.925Z,18.95
2022-08-21T05:17:31.213Z,18.93
2022-08-21T05:19:57.490Z,18.99
2022-08-21T05:22:23.757Z,19.07
2022-08-21T05:24:50.168Z,19.07
2022-08-21T05:27:17.780Z,19.03
2022-08-21T05:29:44.207Z,19.06
2022-08-21T05:32:10.433Z,19.03
2022-08-21T05:34:36.734Z,19.05
2022-08-21T05:37:07.004Z,19.10
2022-08-21T05:40:05.410Z,19.14
2022-08-21T05:42:20.314Z,19.16
2022-08-21T05:44:46.693Z,19.20
2022-08-21T05:47:15.153Z,19.22
2022-08-21T05:49:41.512Z,19.24
2022-08-21T05:52:07.876Z,19.25
2022-08-21T05:54:34.146Z,19.28
2022-08-21T05:57:03.444Z,19.32
2022-08-21T05:59:29.953Z,19.37
2022-08-21T06:01:56.288Z,19.42
2022-08-21T06:04:25.219Z,19.56
2022-08-21T06:06:51.452Z,19.80
2022-08-21T06:09:17.816Z,20.03
2022-08-21T06:11:44.253Z,20.21
2022-08-21T06:14:10.519Z,20.37
2022-08-21T06:16:36.864Z,20.35
2022-08-21T06:19:05.173Z,20.23
2022-08-21T06:21:31.449Z,20.53
2022-08-21T06:23:57.736Z,20.80
2022-08-21T06:26:24.073Z,20.99
2022-08-21T06:28:50.447Z,21.17
2022-08-21T06:31:16.728Z,21.35
2022-08-21T06:33:42.991Z,21.52
2022-08-21T06:36:09.441Z,21.69
2022-08-21T06:38:35.718Z,21.84
2022-08-21T06:41:04.224Z,21.98
2022-08-21T06:43:39.357Z,22.14
2022-08-21T06:46:06.524Z,22.29
2022-08-21T06:48:32.826Z,22.44
2022-08-21T06:50:59.320Z,22.58
2022-08-21T06:53:25.620Z,22.73
2022-08-21T06:55:51.918Z,22.87
2022-08-21T06:58:18.456Z,23.02
2022-08-21T07:00:44.780Z,23.17
2022-08-21T07:03:11.351Z,23.32
2022-08-21T07:05:37.643Z,23.48
2022-08-21T07:08:03.873Z,23.63
2022-08-21T07:10:30.303Z,23.78
2022-08-21T07:13:00.963Z,23.94
2022-08-21T07:15:27.902Z,24.11
2022-08-21T07:17:54.336Z,24.26
2022-08-21T07:20:20.638Z,24.41
2022-08-21T07:22:49.527Z,24.58
2022-08-21T07:25:15.770Z,24.74
2022-08-21T07:27:42.165Z,24.79
2022-08-21T07:30:08.550Z,25.08
2022-08-21T07:32:35.071Z,25.31
2022-08-21T07:35:01.419Z,25.52
2022-08-21T07:37:27.710Z,25.75
2022-08-21T07:39:54.087Z,25.95
2022-08-21T07:42:20.452Z,26.16
2022-08-21T07:44:46.784Z,26.33
2022-08-21T07:47:16.070Z,26.50
2022-08-21T07:49:55.961Z,26.71
2022-08-21T07:52:22.245Z,26.86
2022-08-21T07:54:48.605Z,27.03
2022-08-21T07:57:15.058Z,27.19
2022-08-21T07:59:45.021Z,27.38
2022-08-21T08:02:11.262Z,27.60
2022-08-21T08:04:37.602Z,27.82
2022-08-21T08:07:16.845Z,28.00
2022-08-21T08:09:43.161Z,28.23
2022-08-21T08:12:09.547Z,28.49
2022-08-21T08:14:36.065Z,28.73
2022-08-21T08:17:02.316Z,28.95
2022-08-21T08:19:28.585Z,29.16
2022-08-21T08:21:54.845Z,29.33
2022-08-21T08:24:21.214Z,29.47
2022-08-21T08:26:53.509Z,29.61
2022-08-21T08:29:20.145Z,29.78
2022-08-21T08:31:46.763Z,29.95
2022-08-21T08:34:13.046Z,30.14
2022-08-21T08:36:55.571Z,30.32
2022-08-21T08:39:26.992Z,30.48
2022-08-21T08:41:57.963Z,30.61
2022-08-21T08:44:25.154Z,30.71
2022-08-21T08:46:57.583Z,30.79
2022-08-21T08:49:23.931Z,30.85
2022-08-21T08:51:50.629Z,30.93
2022-08-21T08:54:19.558Z,30.98
2022-08-21T08:56:45.892Z,30.98
2022-08-21T08:59:12.342Z,30.91
2022-08-21T09:01:41.490Z,30.77
2022-08-21T09:04:07.858Z,30.59
2022-08-21T09:06:34.233Z,29.97
2022-08-21T09:09:00.668Z,29.38
2022-08-21T09:11:27.040Z,29.10
2022-08-21T09:13:53.310Z,28.93
2022-08-21T09:16:19.674Z,28.79
2022-08-21T09:18:46.851Z,28.72
2022-08-21T09:21:13.281Z,28.67
2022-08-21T09:23:39.559Z,28.65
2022-08-21T09:26:05.875Z,28.63
2022-08-21T09:28:32.430Z,28.62
2022-08-21T09:30:58.753Z,28.63
2022-08-21T09:33:25.184Z,28.65
2022-08-21T09:35:51.466Z,28.68
2022-08-21T09:38:17.752Z,28.69
2022-08-21T09:40:45.075Z,28.65
2022-08-21T09:43:11.422Z,28.63
2022-08-21T09:45:37.721Z,28.60
2022-08-21T09:48:04.106Z,28.58
2022-08-21T09:50:30.370Z,28.54
2022-08-21T09:52:56.738Z,28.47
2022-08-21T09:55:24.137Z,28.47
2022-08-21T09:57:50.809Z,28.49
2022-08-21T10:00:17.149Z,28.49
2022-08-21T10:02:43.482Z,28.48
2022-08-21T10:05:10.140Z,28.47
2022-08-21T10:07:36.467Z,28.48
2022-08-21T10:10:02.790Z,28.48
2022-08-21T10:12:29.141Z,28.45
2022-08-21T10:14:55.544Z,28.39
2022-08-21T10:17:21.844Z,28.34
2022-08-21T10:19:48.301Z,28.29
2022-08-21T10:22:14.626Z,28.28
2022-08-21T10:24:41.098Z,28.26
2022-08-21T10:27:07.472Z,28.28
2022-08-21T10:29:34.035Z,28.27
2022-08-21T10:32:00.446Z,28.20
2022-08-21T10:34:37.454Z,28.17
2022-08-21T10:37:08.185Z,28.23
2022-08-21T10:39:37.371Z,28.25
2022-08-21T10:42:03.740Z,28.27
2022-08-21T10:44:30.008Z,28.27
2022-08-21T10:46:56.289Z,28.26
2022-08-21T10:49:22.614Z,28.28
2022-08-21T10:51:48.951Z,28.29
2022-08-21T10:54:16.065Z,28.30
2022-08-21T10:56:44.097Z,28.23
2022-08-21T10:59:10.654Z,28.16
2022-08-21T11:01:36.972Z,28.06
2022-08-21T11:04:03.396Z,28.08
2022-08-21T11:06:31.942Z,28.08
2022-08-21T11:08:58.203Z,28.07
2022-08-21T11:11:24.463Z,27.97
2022-08-21T11:13:54.479Z,27.99
2022-08-21T11:16:20.790Z,28.05
2022-08-21T11:18:47.086Z,28.07
2022-08-21T11:21:13.531Z,28.08
2022-08-21T11:23:39.832Z,28.10
2022-08-21T11:26:06.164Z,28.11
2022-08-21T11:28:33.018Z,28.12
2022-08-21T11:30:59.442Z,28.12
2022-08-21T11:33:25.775Z,28.12
2022-08-21T11:35:52.318Z,28.13
2022-08-21T11:38:18.664Z,28.13
2022-08-21T11:40:47.113Z,28.13
2022-08-21T11:43:13.446Z,28.14
2022-08-21T11:45:40.150Z,28.13
2022-08-21T11:48:06.509Z,28.12
2022-08-21T11:50:35.022Z,28.09
2022-08-21T11:53:02.988Z,28.10
2022-08-21T11:55:29.434Z,28.06
2022-08-21T11:57:57.126Z,28.07
2022-08-21T12:00:23.635Z,28.08
2022-08-21T12:02:50.108Z,28.10
2022-08-21T12:05:19.256Z,28.11
2022-08-21T12:07:48.819Z,28.13
2022-08-21T12:10:17.638Z,28.11
2022-08-21T12:12:44.002Z,28.11
2022-08-21T12:15:10.674Z,28.09
2022-08-21T12:17:37.330Z,28.10
2022-08-21T12:20:03.735Z,28.12
2022-08-21T12:22:30.179Z,28.12
2022-08-21T12:24:56.445Z,28.14
2022-08-21T12:27:22.957Z,28.15
2022-08-21T12:29:49.329Z,28.06
2022-08-21T12:32:15.825Z,27.99
2022-08-21T12:34:42.160Z,27.97
2022-08-21T12:37:08.560Z,27.99
2022-08-21T12:39:35.375Z,27.99
2022-08-21T12:42:02.356Z,27.99
2022-08-21T12:47:14.953Z,27.97
2022-08-21T12:49:41.310Z,27.96
2022-08-21T12:52:07.677Z,27.96
2022-08-21T12:54:34.023Z,27.96
2022-08-21T12:57:00.364Z,27.97
2022-08-21T12:59:26.689Z,27.96
2022-08-21T13:01:57.029Z,27.94
2022-08-21T13:04:26.020Z,27.94
2022-08-21T13:06:52.376Z,27.93
2022-08-21T13:09:21.754Z,27.92
2022-08-21T13:11:48.159Z,27.91
2022-08-21T13:14:17.306Z,27.92
2022-08-21T13:16:43.814Z,27.94
2022-08-21T13:19:10.319Z,27.94
2022-08-21T13:21:36.651Z,27.93
2022-08-21T13:24:14.781Z,27.95
2022-08-21T13:26:49.323Z,27.95
2022-08-21T13:29:15.594Z,27.94
2022-08-21T13:31:42.051Z,27.83
2022-08-21T13:34:08.388Z,27.93
2022-08-21T13:36:34.786Z,27.93
2022-08-21T13:39:01.185Z,27.94
2022-08-21T13:41:27.695Z,27.95
2022-08-21T13:43:54.016Z,27.93
2022-08-21T13:46:20.323Z,27.94
2022-08-21T13:48:46.881Z,27.94
2022-08-21T13:51:13.867Z,27.81
2022-08-21T13:53:40.290Z,27.92
2022-08-21T13:56:06.778Z,27.92
2022-08-21T13:58:33.087Z,27.94
2022-08-21T14:00:59.520Z,27.94
2022-08-21T14:03:25.831Z,27.95
2022-08-21T14:05:52.189Z,27.97
2022-08-21T14:08:18.523Z,27.96
2022-08-21T14:10:44.833Z,27.96
2022-08-21T14:13:11.260Z,27.98
2022-08-21T14:15:37.617Z,27.96
2022-08-21T14:18:03.924Z,27.93
2022-08-21T14:20:30.389Z,27.92
2022-08-21T14:22:56.819Z,27.93
2022-08-21T14:25:25.061Z,27.92
2022-08-21T14:27:51.536Z,27.92
2022-08-21T14:30:17.858Z,27.94
2022-08-21T14:32:44.398Z,27.92
2022-08-21T14:35:12.371Z,27.93
2022-08-21T14:37:38.655Z,27.91
2022-08-21T14:40:05.039Z,27.90
2022-08-21T14:42:32.994Z,27.90
2022-08-21T14:44:59.276Z,27.89
2022-08-21T14:47:25.587Z,27.85
2022-08-21T14:49:51.921Z,27.86
2022-08-21T14:52:18.186Z,27.86
2022-08-21T14:54:44.453Z,27.86
2022-08-21T14:57:10.827Z,27.87
2022-08-21T14:59:37.108Z,27.86
2022-08-21T15:02:03.348Z,27.85
2022-08-21T15:04:29.677Z,27.84
2022-08-21T15:06:56.042Z,27.85
2022-08-21T15:09:22.517Z,27.85
2022-08-21T15:11:48.812Z,27.83
2022-08-21T15:14:15.172Z,27.83
2022-08-21T15:16:41.438Z,27.82
2022-08-21T15:19:07.804Z,27.82
2022-08-21T15:21:36.177Z,27.81
2022-08-21T15:24:02.474Z,27.81
2022-08-21T15:26:28.872Z,27.80
2022-08-21T15:28:55.184Z,27.79
2022-08-21T15:31:21.567Z,27.67
2022-08-21T15:33:47.941Z,27.77
2022-08-21T15:36:14.228Z,27.75
2022-08-21T15:38:40.520Z,27.75
2022-08-21T15:41:06.904Z,27.73
2022-08-21T15:43:33.190Z,27.71
2022-08-21T15:45:59.497Z,27.72
2022-08-21T15:48:25.891Z,27.72
2022-08-21T15:50:52.245Z,27.70
2022-08-21T15:53:18.725Z,27.69
2022-08-21T15:55:45.097Z,27.66
2022-08-21T15:58:11.415Z,27.65
2022-08-21T16:00:37.870Z,27.64
2022-08-21T16:03:04.156Z,27.62
2022-08-21T16:05:30.725Z,27.61
2022-08-21T16:07:57.035Z,27.60
2022-08-21T16:10:23.431Z,27.58
2022-08-21T16:12:54.363Z,27.57
2022-08-21T16:15:20.799Z,27.54
2022-08-21T16:17:47.391Z,27.53
2022-08-21T16:20:15.179Z,27.52
2022-08-21T16:22:44.883Z,27.52
2022-08-21T16:25:11.369Z,27.51
2022-08-21T16:27:37.614Z,27.49
2022-08-21T16:30:06.115Z,27.48
2022-08-21T16:32:32.526Z,27.46
2022-08-21T16:34:59.912Z,27.43
2022-08-21T16:37:26.244Z,27.41
2022-08-21T16:39:53.371Z,27.39
2022-08-21T16:42:21.765Z,27.34
2022-08-21T16:44:49.460Z,27.31
2022-08-21T16:47:27.289Z,27.29
2022-08-21T16:49:53.853Z,27.25
2022-08-21T16:52:20.924Z,27.23
2022-08-21T16:54:47.324Z,27.20
2022-08-21T16:57:13.611Z,27.18
2022-08-21T16:59:40.054Z,27.16
2022-08-21T17:02:06.342Z,27.14
2022-08-21T17:04:33.741Z,27.12
2022-08-21T17:07:00.005Z,27.10
2022-08-21T17:09:26.258Z,27.07
2022-08-21T17:11:52.497Z,27.05
2022-08-21T17:14:18.923Z,27.01
2022-08-21T17:16:45.327Z,26.98
2022-08-21T17:19:14.610Z,26.96
2022-08-21T17:21:40.991Z,26.92
2022-08-21T17:24:07.342Z,26.90
2022-08-21T17:26:33.904Z,26.85
2022-08-21T17:29:00.203Z,26.82
2022-08-21T17:31:26.646Z,26.79
2022-08-21T17:33:54.024Z,26.74
2022-08-21T17:36:22.828Z,26.71
2022-08-21T17:38:49.253Z,26.67
2022-08-21T17:41:15.530Z,26.63
2022-08-21T17:43:41.822Z,26.58
2022-08-21T17:46:08.117Z,26.53
2022-08-21T17:48:34.455Z,26.48
2022-08-21T17:51:01.797Z,26.44
2022-08-21T17:53:28.083Z,26.41
2022-08-21T17:55:54.425Z,26.37
2022-08-21T17:58:20.696Z,26.32
2022-08-21T18:00:47.041Z,26.29
2022-08-21T18:03:13.385Z,26.25
2022-08-21T18:05:39.798Z,26.21
2022-08-21T18:08:06.059Z,26.17
2022-08-21T18:10:32.456Z,26.14
2022-08-21T18:12:58.909Z,26.09
2022-08-21T18:15:25.348Z,26.04
2022-08-21T18:17:51.710Z,25.99
2022-08-21T18:20:18.929Z,25.99
2022-08-21T18:22:45.315Z,25.95
2022-08-21T18:25:11.601Z,25.90
2022-08-21T18:27:38.033Z,25.86
2022-08-21T18:30:04.315Z,25.81
2022-08-21T18:32:31.974Z,25.76
2022-08-21T18:34:58.519Z,25.73
2022-08-21T18:37:24.804Z,25.68
2022-08-21T18:39:51.233Z,25.64
2022-08-21T18:42:18.246Z,25.56
2022-08-21T18:44:44.549Z,25.49
2022-08-21T18:47:10.779Z,25.41
2022-08-21T18:49:37.126Z,25.32
2022-08-21T18:52:03.470Z,25.23
2022-08-21T18:54:30.121Z,25.18
2022-08-21T18:56:56.407Z,25.11
2022-08-21T18:59:25.408Z,25.04
2022-08-21T19:01:53.102Z,24.98
2022-08-21T19:04:43.262Z,24.92
2022-08-21T19:07:05.882Z,24.85
2022-08-21T19:09:32.984Z,24.78
2022-08-21T19:12:00.136Z,24.71
2022-08-21T19:14:26.435Z,24.63
2022-08-21T19:16:52.694Z,24.58
2022-08-21T19:19:18.951Z,24.53
2022-08-21T19:21:45.271Z,24.48
2022-08-21T19:24:17.797Z,24.42
2022-08-21T19:26:44.605Z,24.38
2022-08-21T19:29:10.955Z,24.32
2022-08-21T19:31:37.283Z,24.28
2022-08-21T19:34:04.403Z,24.22
2022-08-21T19:36:30.665Z,24.17
2022-08-21T19:38:57.622Z,24.10
2022-08-21T19:41:24.066Z,24.03
2022-08-21T19:43:51.615Z,23.96
2022-08-21T19:46:18.042Z,23.88
2022-08-21T19:48:46.734Z,23.80
2022-08-21T19:51:15.270Z,23.75
2022-08-21T19:53:41.680Z,23.69
2022-08-21T19:56:08.092Z,23.66
2022-08-21T19:58:37.634Z,23.61
2022-08-21T20:01:04.156Z,23.59
2022-08-21T20:03:43.260Z,23.57
2022-08-21T20:06:09.701Z,23.55
2022-08-21T20:08:38.910Z,23.51
2022-08-21T20:11:05.356Z,23.48
2022-08-21T20:13:33.723Z,23.41
2022-08-21T20:16:02.645Z,23.32
2022-08-21T20:18:43.136Z,23.26
2022-08-21T20:21:12.165Z,23.20
2022-08-21T20:23:48.702Z,23.15
2022-08-21T20:26:15.776Z,23.11
2022-08-21T20:28:50.306Z,23.11
2022-08-21T20:31:17.002Z,23.10
2022-08-21T20:33:45.917Z,23.09
2022-08-21T20:36:15.952Z,23.08
2022-08-21T20:38:42.556Z,23.04
2022-08-21T20:41:21.391Z,23.00
2022-08-21T20:43:59.480Z,22.92
2022-08-21T20:46:25.941Z,22.85
2022-08-21T20:48:53.949Z,22.80
2022-08-21T20:51:24.700Z,22.77
2022-08-21T20:53:58.782Z,22.72
2022-08-21T20:56:26.462Z,22.69
2022-08-21T20:59:00.762Z,22.66
2022-08-21T21:01:28.276Z,22.63
2022-08-21T21:04:30.571Z,22.61
2022-08-21T21:07:20.887Z,22.59
2022-08-21T21:09:55.304Z,22.56
2022-08-21T21:12:27.963Z,22.55
2022-08-21T21:14:58.827Z,22.54
2022-08-21T21:17:28.795Z,22.50
2022-08-21T21:19:55.224Z,22.48
2022-08-21T21:22:25.116Z,22.44
2022-08-21T21:24:51.602Z,22.39
2022-08-21T21:27:21.342Z,22.32
2022-08-21T21:29:49.209Z,22.27
2022-08-21T21:32:17.931Z,22.25
2022-08-21T21:34:59.314Z,22.21
2022-08-21T21:37:25.811Z,22.21
2022-08-21T21:39:53.069Z,22.18
2022-08-21T21:42:30.333Z,22.17
2022-08-21T21:45:08.613Z,22.14
2022-08-21T21:47:36.463Z,22.13
2022-08-21T21:50:03.045Z,22.12
2022-08-21T21:52:29.633Z,22.10
2022-08-21T21:54:55.975Z,22.06
2022-08-21T21:57:25.267Z,22.04
2022-08-21T21:59:54.770Z,21.91
2022-08-21T22:02:21.219Z,21.99
2022-08-21T22:04:51.292Z,21.96
2022-08-21T22:07:17.775Z,21.95
2022-08-21T22:09:44.061Z,21.91
2022-08-21T22:12:10.337Z,21.88
2022-08-21T22:14:36.636Z,21.86
2022-08-21T22:17:02.983Z,21.83
2022-08-21T22:19:30.706Z,21.81
2022-08-21T22:21:56.993Z,21.79
2022-08-21T22:24:23.367Z,21.77
2022-08-21T22:26:49.732Z,21.76
2022-08-21T22:29:16.006Z,21.73
2022-08-21T22:31:42.689Z,21.72
2022-08-21T22:36:58.293Z,21.66
2022-08-21T22:42:11.878Z,21.60
2022-08-21T22:44:38.295Z,21.59
2022-08-21T22:47:06.057Z,21.56
2022-08-21T22:49:35.296Z,21.54
2022-08-21T22:52:02.899Z,21.50
2022-08-21T22:54:34.004Z,21.49
2022-08-21T22:57:00.640Z,21.45
2022-08-21T22:59:26.931Z,21.40
2022-08-21T23:01:55.656Z,21.39
2022-08-21T23:04:24.031Z,21.36
2022-08-21T23:09:36.928Z,21.32
2022-08-21T23:12:14.123Z,21.30
2022-08-21T23:14:48.412Z,21.29
2022-08-21T23:17:21.164Z,21.26
2022-08-21T23:19:50.330Z,21.25
2022-08-21T23:22:17.270Z,21.23
2022-08-21T23:24:46.570Z,21.21
2022-08-21T23:30:04.564Z,21.15
2022-08-21T23:32:35.706Z,21.11
2022-08-21T23:35:07.731Z,21.08
2022-08-21T23:40:20.494Z,21.03
2022-08-21T23:42:46.938Z,21.02
2022-08-21T23:48:02.479Z,20.98
2022-08-21T23:50:32.408Z,20.96
2022-08-21T23:53:01.685Z,20.94
2022-08-21T23:55:35.314Z,20.90
2022-08-21T23:58:01.736Z,20.87
